createdAt,value
2022-10-29T00:00:55.050Z,4.10
2022-10-29T00:03:22.960Z,3.60
2022-10-29T00:05:59.544Z,3.70
2022-10-29T00:08:26.994Z,3.83
2022-10-29T00:10:53.933Z,3.73
2022-10-29T00:13:21.049Z,4.30
2022-10-29T00:15:48.116Z,4.10
2022-10-29T00:18:15.003Z,4.33
2022-10-29T00:20:41.974Z,4.10
2022-10-29T00:23:08.925Z,4.10
2022-10-29T00:25:35.862Z,3.80
2022-10-29T00:28:02.714Z,4.17
2022-10-29T00:30:29.624Z,5.37
2022-10-29T00:32:56.789Z,4.60
2022-10-29T00:35:23.926Z,4.50
2022-10-29T00:37:50.817Z,5.13
2022-10-29T00:40:17.827Z,5.67
2022-10-29T00:42:44.688Z,5.00
2022-10-29T00:45:21.792Z,5.07
2022-10-29T00:47:52.121Z,4.57
2022-10-29T00:50:22.752Z,5.17
2022-10-29T00:52:51.931Z,5.47
2022-10-29T00:55:20.327Z,5.40
2022-10-29T00:57:50.902Z,5.03
2022-10-29T01:00:19.045Z,5.23
2022-10-29T01:02:46.120Z,6.23
2022-10-29T01:05:18.134Z,5.73
2022-10-29T01:07:45.716Z,5.57
2022-10-29T01:10:14.036Z,4.90
2022-10-29T01:13:05.063Z,5.60
2022-10-29T01:16:00.222Z,4.70
2022-10-29T01:18:38.623Z,6.03
2022-10-29T01:21:30.158Z,5.60
2022-10-29T01:24:17.255Z,5.50
2022-10-29T01:26:53.274Z,6.00
2022-10-29T01:29:50.276Z,5.80
2022-10-29T01:32:22.187Z,5.90
2022-10-29T01:35:03.354Z,6.53
2022-10-29T01:37:47.918Z,6.77
2022-10-29T01:40:26.910Z,6.83
2022-10-29T01:43:21.312Z,6.80
2022-10-29T01:45:55.869Z,6.47
2022-10-29T01:48:33.167Z,7.67
2022-10-29T01:51:05.020Z,7.97
2022-10-29T01:53:36.285Z,7.77
2022-10-29T01:56:03.512Z,6.93
2022-10-29T01:58:33.994Z,8.10
2022-10-29T02:01:06.964Z,7.77
2022-10-29T02:03:58.189Z,7.63
2022-10-29T02:06:39.959Z,7.70
2022-10-29T02:09:06.850Z,8.60
2022-10-29T02:11:59.090Z,8.00
2022-10-29T02:14:38.522Z,8.37
2022-10-29T02:17:07.126Z,8.30
2022-10-29T02:19:36.155Z,8.37
2022-10-29T02:22:04.321Z,8.03
2022-10-29T02:24:32.459Z,8.60
2022-10-29T02:26:59.316Z,7.27
2022-10-29T02:29:26.279Z,8.30
2022-10-29T02:31:53.121Z,8.30
2022-10-29T02:34:19.976Z,7.90
2022-10-29T02:36:46.926Z,8.67
2022-10-29T02:39:13.790Z,9.37
2022-10-29T02:41:40.703Z,8.73
2022-10-29T02:44:07.624Z,8.50
2022-10-29T02:46:39.751Z,8.90
2022-10-29T02:49:08.842Z,8.53
2022-10-29T02:51:35.725Z,9.33
2022-10-29T02:54:02.636Z,9.20
2022-10-29T02:56:29.586Z,8.83
2022-10-29T02:58:56.481Z,8.57
2022-10-29T03:01:23.489Z,9.40
2022-10-29T03:03:50.692Z,8.77
2022-10-29T03:06:19.567Z,9.80
2022-10-29T03:08:47.102Z,9.50
2022-10-29T03:11:14.334Z,9.57
2022-10-29T03:13:41.397Z,8.93
2022-10-29T03:16:08.421Z,8.53
2022-10-29T03:18:35.451Z,8.80
2022-10-29T03:21:02.554Z,9.57
2022-10-29T03:23:29.461Z,9.07
2022-10-29T03:25:56.874Z,8.77
2022-10-29T03:28:25.246Z,8.93
2022-10-29T03:30:52.243Z,8.93
2022-10-29T03:33:19.149Z,7.83
2022-10-29T03:35:46.059Z,7.80
2022-10-29T03:38:12.973Z,8.13
2022-10-29T03:40:39.924Z,8.63
2022-10-29T03:43:07.767Z,7.07
2022-10-29T03:45:34.619Z,7.70
2022-10-29T03:48:04.555Z,6.97
2022-10-29T03:50:31.612Z,7.20
2022-10-29T03:52:58.590Z,6.87
2022-10-29T03:55:25.526Z,8.17
2022-10-29T03:57:52.375Z,7.60
2022-10-29T04:00:19.273Z,7.13
2022-10-29T04:02:46.288Z,6.90
2022-10-29T04:05:13.238Z,7.87
2022-10-29T04:07:40.061Z,7.50
2022-10-29T04:10:07.242Z,7.37
2022-10-29T04:12:34.161Z,7.47
2022-10-29T04:15:01.199Z,7.13
2022-10-29T04:17:28.060Z,8.00
2022-10-29T04:19:54.909Z,7.10
2022-10-29T04:30:43.247Z,6.93
2022-10-29T04:33:10.109Z,7.60
2022-10-29T04:35:36.926Z,6.77
2022-10-29T04:38:11.688Z,7.27
2022-10-29T04:40:39.063Z,7.17
2022-10-29T04:43:05.974Z,6.80
2022-10-29T04:45:32.898Z,6.80
2022-10-29T04:48:01.537Z,7.67
2022-10-29T04:50:29.087Z,7.23
2022-10-29T04:53:00.625Z,6.93
2022-10-29T04:55:29.888Z,7.97
2022-10-29T04:57:58.385Z,8.27
2022-10-29T05:00:25.491Z,8.40
2022-10-29T05:02:53.502Z,9.80
2022-10-29T05:05:21.588Z,9.17
2022-10-29T05:07:48.818Z,9.00
2022-10-29T05:10:15.713Z,9.53
2022-10-29T05:12:42.554Z,10.87
2022-10-29T05:15:09.838Z,10.60
2022-10-29T05:17:38.787Z,12.63
2022-10-29T05:20:06.185Z,12.43
2022-10-29T05:22:33.095Z,13.03
2022-10-29T05:24:59.927Z,12.77
2022-10-29T05:27:26.775Z,13.20
2022-10-29T05:29:53.661Z,12.50
2022-10-29T05:32:20.547Z,12.27
2022-10-29T05:34:47.439Z,12.63
2022-10-29T05:37:14.419Z,12.47
2022-10-29T05:39:41.288Z,13.33
2022-10-29T05:42:08.143Z,13.90
2022-10-29T05:44:34.983Z,13.50
2022-10-29T05:47:01.881Z,14.30
2022-10-29T05:49:29.734Z,14.00
2022-10-29T05:51:56.634Z,12.73
2022-10-29T05:54:23.494Z,13.63
2022-10-29T05:56:50.552Z,14.87
2022-10-29T05:59:17.463Z,13.20
2022-10-29T06:01:44.414Z,13.83
2022-10-29T06:04:11.365Z,14.80
2022-10-29T06:06:38.943Z,14.67
2022-10-29T06:09:06.086Z,14.43
2022-10-29T06:11:32.962Z,14.00
2022-10-29T06:13:59.890Z,15.50
2022-10-29T06:16:26.748Z,14.73
2022-10-29T06:18:53.592Z,13.90
2022-10-29T06:21:20.535Z,14.97
2022-10-29T06:23:47.422Z,15.53
2022-10-29T06:26:14.349Z,15.40
2022-10-29T06:28:43.315Z,15.23
2022-10-29T06:31:11.160Z,15.83
2022-10-29T06:33:41.109Z,14.23
2022-10-29T06:36:08.438Z,14.73
2022-10-29T06:38:47.642Z,14.77
2022-10-29T06:41:16.776Z,15.67
2022-10-29T06:43:46.679Z,15.20
2022-10-29T06:46:14.547Z,14.90
2022-10-29T06:48:44.643Z,14.63
2022-10-29T06:51:11.650Z,14.17
2022-10-29T06:53:44.785Z,14.20
2022-10-29T06:56:12.673Z,14.57
2022-10-29T06:58:40.789Z,14.87
2022-10-29T07:01:10.900Z,13.27
2022-10-29T07:03:40.018Z,14.17
2022-10-29T07:06:13.087Z,14.63
2022-10-29T07:08:43.120Z,13.57
2022-10-29T07:11:11.123Z,13.50
2022-10-29T07:13:39.015Z,12.77
2022-10-29T07:16:06.530Z,12.90
2022-10-29T07:18:36.732Z,13.30
2022-10-29T07:21:04.463Z,13.77
2022-10-29T07:23:34.403Z,13.00
2022-10-29T07:26:03.330Z,12.80
2022-10-29T07:28:32.302Z,12.10
2022-10-29T07:31:02.387Z,12.23
2022-10-29T07:33:32.498Z,12.93
2022-10-29T07:36:00.613Z,12.47
2022-10-29T07:38:30.710Z,13.57
2022-10-29T07:40:57.649Z,12.67
2022-10-29T07:43:28.623Z,12.97
2022-10-29T07:45:58.531Z,12.63
2022-10-29T07:48:26.465Z,13.17
2022-10-29T07:50:58.638Z,12.13
2022-10-29T07:53:26.546Z,12.57
2022-10-29T07:55:57.021Z,12.03
2022-10-29T07:58:26.945Z,11.43
2022-10-29T08:00:59.856Z,10.77
2022-10-29T08:03:27.869Z,12.33
2022-10-29T08:05:57.866Z,11.43
2022-10-29T08:08:26.838Z,11.00
2022-10-29T08:11:03.794Z,10.80
2022-10-29T08:13:31.197Z,10.93
2022-10-29T08:16:00.330Z,10.63
2022-10-29T08:18:30.324Z,12.00
2022-10-29T08:20:59.385Z,10.07
2022-10-29T08:23:28.390Z,10.23
2022-10-29T08:25:58.996Z,9.90
2022-10-29T08:28:27.605Z,10.30
2022-10-29T08:30:57.395Z,9.47
2022-10-29T08:33:27.467Z,10.37
2022-10-29T08:35:57.386Z,9.87
2022-10-29T08:38:25.416Z,9.27
2022-10-29T08:41:30.678Z,9.17
2022-10-29T08:44:43.938Z,8.50
2022-10-29T08:47:23.514Z,9.10
2022-10-29T08:50:05.559Z,8.30
2022-10-29T08:52:53.002Z,8.50
2022-10-29T08:55:36.387Z,8.87
2022-10-29T08:58:25.178Z,8.67
2022-10-29T09:00:57.129Z,8.07
2022-10-29T09:03:27.385Z,7.53
2022-10-29T09:06:17.707Z,8.37
2022-10-29T09:09:00.535Z,7.70
2022-10-29T09:11:42.057Z,7.97
2022-10-29T09:14:43.413Z,6.87
2022-10-29T09:17:37.835Z,6.47
2022-10-29T09:20:24.408Z,6.40
2022-10-29T09:23:14.700Z,6.43
2022-10-29T09:25:57.863Z,5.83
2022-10-29T09:28:40.716Z,5.57
2022-10-29T09:31:18.214Z,6.17
2022-10-29T09:33:49.706Z,6.80
2022-10-29T09:36:21.330Z,5.93
2022-10-29T09:39:15.634Z,6.83
2022-10-29T09:41:48.682Z,6.73
2022-10-29T09:44:50.023Z,6.70
2022-10-29T09:48:02.128Z,7.20
2022-10-29T09:50:36.938Z,6.93
2022-10-29T09:53:08.045Z,6.27
2022-10-29T09:55:46.406Z,6.20
2022-10-29T09:58:23.130Z,5.90
2022-10-29T10:00:50.554Z,5.87
2022-10-29T10:03:35.542Z,5.37
2022-10-29T10:06:08.913Z,5.03
2022-10-29T10:09:11.316Z,5.30
2022-10-29T10:11:52.979Z,5.13
2022-10-29T10:14:31.355Z,5.07
2022-10-29T10:17:01.561Z,5.57
2022-10-29T10:19:32.206Z,5.72
2022-10-29T10:22:05.753Z,6.07
2022-10-29T10:24:41.235Z,5.65
2022-10-29T10:27:26.696Z,6.38
2022-10-29T10:30:08.761Z,5.07
2022-10-29T10:32:35.722Z,5.75
2022-10-29T10:35:31.575Z,5.78
2022-10-29T10:38:06.632Z,5.07
2022-10-29T10:40:37.301Z,4.97
2022-10-29T10:43:08.150Z,4.90
2022-10-29T10:45:42.591Z,5.70
2022-10-29T10:48:11.414Z,4.93
2022-10-29T10:50:38.555Z,5.30
2022-10-29T10:53:25.548Z,5.00
2022-10-29T10:56:00.513Z,4.68
2022-10-29T10:58:37.755Z,4.55
2022-10-29T11:01:14.217Z,4.43
2022-10-29T11:03:48.811Z,4.75
2022-10-29T11:06:40.148Z,4.75
2022-10-29T11:09:20.979Z,5.53
2022-10-29T11:11:59.132Z,4.78
2022-10-29T11:14:32.939Z,4.60
2022-10-29T11:17:03.833Z,5.40
2022-10-29T11:19:38.103Z,5.18
2022-10-29T11:22:27.846Z,4.35
2022-10-29T11:25:22.192Z,4.60
2022-10-29T11:27:55.164Z,4.47
2022-10-29T11:30:24.216Z,5.00
2022-10-29T11:33:24.745Z,4.57
2022-10-29T11:36:22.758Z,4.60
2022-10-29T11:38:56.964Z,4.77
2022-10-29T11:41:29.884Z,5.20
2022-10-29T11:43:56.855Z,5.27
2022-10-29T11:47:00.719Z,5.07
2022-10-29T11:49:48.714Z,5.00
2022-10-29T11:52:57.174Z,5.43
2022-10-29T11:56:01.197Z,4.97
2022-10-29T11:58:40.787Z,4.63
2022-10-29T12:01:28.197Z,5.00
2022-10-29T12:04:19.538Z,5.17
2022-10-29T12:07:05.062Z,5.40
2022-10-29T12:10:12.518Z,5.30
2022-10-29T12:13:00.770Z,5.13
2022-10-29T12:15:31.128Z,5.77
2022-10-29T12:18:13.146Z,5.50
2022-10-29T12:20:56.195Z,5.23
2022-10-29T12:23:43.121Z,5.47
2022-10-29T12:26:12.099Z,6.27
2022-10-29T12:28:55.678Z,5.07
2022-10-29T12:31:42.601Z,5.50
2022-10-29T12:34:42.202Z,6.03
2022-10-29T12:37:28.922Z,6.07
2022-10-29T12:40:22.689Z,5.80
2022-10-29T12:42:51.902Z,5.40
2022-10-29T12:45:39.949Z,5.50
2022-10-29T12:48:52.313Z,4.70
2022-10-29T12:51:26.127Z,5.23
2022-10-29T12:53:59.231Z,4.53
2022-10-29T12:56:30.246Z,4.77
2022-10-29T12:59:18.786Z,4.33
2022-10-29T13:04:37.400Z,4.27
2022-10-29T13:07:18.487Z,4.40
2022-10-29T13:09:48.334Z,5.33
2022-10-29T13:12:54.115Z,4.97
2022-10-29T13:15:41.457Z,4.50
2022-10-29T13:18:41.782Z,4.20
2022-10-29T13:21:10.130Z,4.10
2022-10-29T13:23:38.460Z,5.07
2022-10-29T13:26:11.521Z,4.17
2022-10-29T13:28:40.443Z,4.13
2022-10-29T13:31:08.291Z,4.57
2022-10-29T13:33:39.270Z,4.13
2022-10-29T13:36:17.119Z,4.00
2022-10-29T13:39:06.419Z,4.40
2022-10-29T13:41:53.596Z,4.07
2022-10-29T13:44:25.323Z,4.20
2022-10-29T13:46:57.523Z,4.17
2022-10-29T13:49:45.356Z,4.07
2022-10-29T13:52:18.828Z,4.07
2022-10-29T13:54:54.417Z,4.30
2022-10-29T13:57:45.541Z,4.37
2022-10-29T14:00:13.431Z,4.53
2022-10-29T14:03:02.678Z,5.07
2022-10-29T14:05:47.303Z,4.23
2022-10-29T14:08:20.923Z,4.00
2022-10-29T14:11:01.485Z,3.40
2022-10-29T14:13:48.242Z,6.07
2022-10-29T14:16:16.949Z,4.27
2022-10-29T14:18:45.798Z,3.80
2022-10-29T14:21:37.408Z,4.20
2022-10-29T14:24:11.443Z,3.73
2022-10-29T14:26:42.548Z,4.00
2022-10-29T14:29:21.398Z,4.53
2022-10-29T14:32:06.016Z,5.07
2022-10-29T14:34:36.027Z,4.80
2022-10-29T14:37:12.652Z,4.83
2022-10-29T14:39:58.597Z,5.47
2022-10-29T14:42:40.493Z,4.23
2022-10-29T14:45:30.029Z,4.33
2022-10-29T14:48:18.709Z,4.17
2022-10-29T14:50:51.522Z,3.90
2022-10-29T14:53:33.386Z,4.93
2022-10-29T14:56:11.776Z,4.23
2022-10-29T14:58:38.951Z,3.80
2022-10-29T15:01:16.353Z,4.77
2022-10-29T15:03:47.040Z,4.60
2022-10-29T15:06:25.854Z,4.37
2022-10-29T15:09:15.901Z,4.97
2022-10-29T15:12:18.873Z,5.13
2022-10-29T15:14:54.927Z,5.60
2022-10-29T15:17:26.143Z,5.83
2022-10-29T15:20:06.384Z,5.83
2022-10-29T15:22:38.724Z,5.13
2022-10-29T15:25:12.523Z,5.13
2022-10-29T15:27:42.957Z,4.90
2022-10-29T15:30:19.476Z,5.53
2022-10-29T15:32:49.667Z,5.03
2022-10-29T15:35:24.210Z,4.90
2022-10-29T15:37:53.423Z,4.73
2022-10-29T15:40:23.340Z,4.80
2022-10-29T15:42:52.458Z,4.97
2022-10-29T15:45:28.174Z,4.10
2022-10-29T15:48:28.334Z,5.27
2022-10-29T15:50:57.799Z,4.63
2022-10-29T15:53:27.769Z,5.23
2022-10-29T15:55:58.291Z,4.40
2022-10-29T15:58:28.277Z,4.47
2022-10-29T16:00:57.376Z,4.77
2022-10-29T16:03:27.274Z,4.23
2022-10-29T16:06:02.234Z,4.23
2022-10-29T16:08:39.190Z,4.67
2022-10-29T16:11:12.167Z,4.67
2022-10-29T16:13:55.111Z,4.60
2022-10-29T16:16:24.752Z,4.90
2022-10-29T16:18:54.875Z,4.90
2022-10-29T16:21:25.246Z,5.80
2022-10-29T16:23:53.395Z,4.00
2022-10-29T16:26:25.173Z,4.50
2022-10-29T16:28:54.286Z,4.70
2022-10-29T16:31:28.960Z,4.47
2022-10-29T16:33:58.867Z,5.47
2022-10-29T16:36:27.070Z,5.00
2022-10-29T16:38:54.075Z,4.17
2022-10-29T16:41:22.508Z,4.67
2022-10-29T16:43:53.025Z,5.67
2022-10-29T16:46:23.017Z,4.93
2022-10-29T16:48:53.105Z,5.27
2022-10-29T16:51:23.162Z,6.37
2022-10-29T16:53:53.172Z,4.60
2022-10-29T16:56:23.402Z,5.07
2022-10-29T16:59:02.063Z,4.50
2022-10-29T17:01:29.519Z,4.50
2022-10-29T17:03:56.585Z,4.50
2022-10-29T17:06:29.663Z,4.73
2022-10-29T17:08:59.732Z,4.23
2022-10-29T17:11:29.725Z,4.83
2022-10-29T17:13:56.631Z,5.37
2022-10-29T17:16:31.965Z,5.57
2022-10-29T17:18:59.942Z,5.23
2022-10-29T17:21:33.478Z,4.57
2022-10-29T17:24:06.742Z,5.00
2022-10-29T17:26:35.158Z,5.33
2022-10-29T17:29:05.166Z,5.23
2022-10-29T17:31:32.307Z,4.53
2022-10-29T17:33:59.318Z,4.83
2022-10-29T17:36:27.352Z,5.13
2022-10-29T17:39:00.333Z,4.83
2022-10-29T17:41:29.262Z,4.73
2022-10-29T17:43:59.290Z,5.17
2022-10-29T17:46:29.288Z,4.90
2022-10-29T17:48:59.425Z,4.80
2022-10-29T17:51:26.550Z,4.97
2022-10-29T17:53:54.591Z,6.73
2022-10-29T17:56:21.928Z,6.03
2022-10-29T17:58:51.991Z,5.50
2022-10-29T18:01:20.534Z,5.97
2022-10-29T18:03:50.962Z,6.13
2022-10-29T18:06:18.991Z,6.47
2022-10-29T18:08:46.882Z,6.13
2022-10-29T18:11:18.867Z,11.07
2022-10-29T18:13:47.619Z,7.00
2022-10-29T18:16:23.477Z,9.47
2022-10-29T18:19:01.237Z,6.17
2022-10-29T18:21:31.345Z,6.20
2022-10-29T18:24:00.811Z,5.97
2022-10-29T18:26:32.488Z,6.03
2022-10-29T18:29:01.639Z,5.83
2022-10-29T18:31:31.767Z,6.03
2022-10-29T18:34:00.218Z,5.83
2022-10-29T18:36:27.718Z,5.50
2022-10-29T18:38:57.921Z,5.73
2022-10-29T18:41:28.161Z,7.53
2022-10-29T18:43:59.048Z,7.50
2022-10-29T18:46:27.975Z,6.17
2022-10-29T18:48:55.332Z,6.47
2022-10-29T18:51:28.629Z,8.30
2022-10-29T18:53:58.969Z,6.13
2022-10-29T18:56:28.302Z,5.57
2022-10-29T18:58:56.335Z,5.93
2022-10-29T19:01:27.233Z,6.00
2022-10-29T19:03:57.369Z,5.77
2022-10-29T19:06:28.174Z,6.13
2022-10-29T19:09:01.260Z,5.40
2022-10-29T19:11:31.006Z,5.90
2022-10-29T19:14:02.282Z,6.07
2022-10-29T19:16:33.243Z,6.73
2022-10-29T19:19:03.092Z,7.30
2022-10-29T19:21:35.034Z,6.77
2022-10-29T19:24:02.565Z,6.53
2022-10-29T19:26:34.206Z,8.13
2022-10-29T19:29:06.027Z,6.10
2022-10-29T19:31:34.511Z,5.27
2022-10-29T19:34:06.500Z,5.70
2022-10-29T19:36:40.104Z,6.40
2022-10-29T19:39:07.968Z,6.43
2022-10-29T19:41:38.039Z,6.30
2022-10-29T19:44:05.272Z,6.13
2022-10-29T19:46:32.795Z,6.30
2022-10-29T19:49:01.637Z,8.00
2022-10-29T19:51:31.651Z,6.83
2022-10-29T19:54:04.138Z,7.13
2022-10-29T19:56:32.438Z,7.03
2022-10-29T19:59:02.910Z,6.53
2022-10-29T20:01:30.448Z,6.90
2022-10-29T20:03:58.429Z,6.13
2022-10-29T20:06:27.703Z,6.67
2022-10-29T20:08:58.223Z,6.83
2022-10-29T20:11:26.331Z,6.27
2022-10-29T20:13:53.302Z,7.53
2022-10-29T20:16:21.889Z,7.27
2022-10-29T20:18:50.575Z,5.67
2022-10-29T20:21:18.729Z,6.93
2022-10-29T20:23:48.653Z,6.97
2022-10-29T20:26:18.894Z,6.40
2022-10-29T20:28:46.051Z,6.27
2022-10-29T20:31:27.852Z,6.70
2022-10-29T20:34:00.268Z,6.90
2022-10-29T20:36:32.807Z,6.83
2022-10-29T20:39:03.218Z,6.97
2022-10-29T20:41:32.286Z,6.90
2022-10-29T20:44:01.343Z,6.70
2022-10-29T20:46:30.348Z,7.60
2022-10-29T20:49:06.456Z,7.60
2022-10-29T20:51:36.503Z,7.50
2022-10-29T20:54:05.498Z,7.30
2022-10-29T20:56:35.487Z,7.47
2022-10-29T20:59:03.380Z,7.47
2022-10-29T21:01:36.318Z,7.80
2022-10-29T21:04:06.555Z,7.10
2022-10-29T21:06:36.561Z,7.80
2022-10-29T21:09:04.866Z,7.90
2022-10-29T21:11:34.872Z,7.77
2022-10-29T21:14:01.787Z,8.87
2022-10-29T21:16:29.687Z,8.50
2022-10-29T21:19:00.777Z,7.60
2022-10-29T21:21:30.873Z,8.83
2022-10-29T21:23:58.728Z,8.13
2022-10-29T21:26:29.310Z,8.33
2022-10-29T21:28:56.815Z,8.50
2022-10-29T21:31:27.026Z,9.20
2022-10-29T21:33:56.377Z,8.40
2022-10-29T21:36:26.255Z,7.77
2022-10-29T21:38:56.275Z,7.30
2022-10-29T21:41:33.557Z,8.03
2022-10-29T21:44:06.595Z,8.30
2022-10-29T21:46:35.172Z,8.50
2022-10-29T21:49:05.169Z,8.17
2022-10-29T21:51:35.121Z,8.40
2022-10-29T21:54:05.629Z,9.57
2022-10-29T21:56:35.722Z,8.87
2022-10-29T21:59:05.875Z,7.73
2022-10-29T22:01:32.889Z,7.50
2022-10-29T22:04:02.926Z,8.40
2022-10-29T22:06:30.778Z,9.20
2022-10-29T22:08:59.971Z,8.93
2022-10-29T22:11:28.296Z,9.10
2022-10-29T22:13:58.308Z,8.30
2022-10-29T22:16:26.235Z,8.50
2022-10-29T22:18:54.181Z,9.20
2022-10-29T22:21:25.800Z,8.53
2022-10-29T22:23:56.665Z,9.07
2022-10-29T22:26:27.805Z,8.23
2022-10-29T22:28:56.432Z,9.40
2022-10-29T22:31:24.608Z,8.80
2022-10-29T22:33:52.250Z,8.10
2022-10-29T22:36:26.165Z,9.17
2022-10-29T22:38:58.674Z,8.93
2022-10-29T22:41:30.106Z,7.63
2022-10-29T22:44:01.517Z,8.53
2022-10-29T22:46:31.523Z,8.27
2022-10-29T22:49:01.761Z,7.13
2022-10-29T22:51:32.599Z,7.43
2022-10-29T22:54:01.093Z,8.03
2022-10-29T22:56:33.059Z,8.77
2022-10-29T22:59:01.669Z,7.83
2022-10-29T23:01:38.660Z,7.77
2022-10-29T23:04:15.811Z,7.80
2022-10-29T23:06:42.978Z,7.33
2022-10-29T23:09:16.197Z,7.47
2022-10-29T23:11:44.539Z,7.33
2022-10-29T23:14:14.577Z,7.20
2022-10-29T23:16:41.487Z,7.97
2022-10-29T23:19:12.322Z,8.13
2022-10-29T23:21:42.618Z,7.60
2022-10-29T23:24:09.836Z,8.10
2022-10-29T23:26:36.867Z,7.27
2022-10-29T23:29:04.291Z,8.00
2022-10-29T23:31:34.213Z,8.17
2022-10-29T23:34:04.306Z,8.47
2022-10-29T23:36:33.471Z,6.63
2022-10-29T23:39:01.708Z,7.83
2022-10-29T23:41:32.091Z,8.30
2022-10-29T23:44:02.041Z,8.50
2022-10-29T23:46:29.977Z,7.73
2022-10-29T23:48:57.942Z,8.13
2022-10-29T23:51:27.994Z,7.70
2022-10-29T23:53:57.758Z,8.00
2022-10-29T23:56:25.224Z,7.67
2022-10-29T23:58:55.359Z,8.27
